Time;durP1;ratioP1;P1;durP2;ratioP2;P2;SDS_P1;SDS_P2;PMS_P1;PMS_P2;Temp;Humidity;BMP_temperature;BMP_pressure;BME280_temperature;BME280_humidity;BME280_pressure;Samples;Min_cycle;Max_cycle;Signal;HPM_P1;HPM_P2
2022/09/24 00:00:51;;;;;;;4.78;2.90;;;16.20;93.30;;;;;;5051548;28;20035;-72
2022/09/24 00:03:18;;;;;;;3.72;2.75;;;16.20;93.60;;;;;;5051481;28;20033;-70
2022/09/24 00:05:45;;;;;;;3.42;2.38;;;16.20;94.20;;;;;;5050476;28;20032;-70
2022/09/24 00:08:13;;;;;;;5.78;2.90;;;16.20;94.80;;;;;;5051311;28;20103;-72
2022/09/24 00:10:41;;;;;;;6.15;3.08;;;16.20;95.20;;;;;;5051766;28;20029;-71
2022/09/24 00:13:10;;;;;;;7.00;3.10;;;16.20;95.10;;;;;;5051152;28;20049;-72
2022/09/24 00:15:46;;;;;;;4.65;2.83;;;16.10;95.40;;;;;;5051140;28;20036;-73
2022/09/24 00:18:14;;;;;;;3.45;2.35;;;16.10;95.40;;;;;;5049967;28;20034;-70
2022/09/24 00:20:40;;;;;;;12.65;3.63;;;16.10;95.80;;;;;;5051174;28;20036;-71
2022/09/24 00:23:08;;;;;;;10.00;2.88;;;16.10;95.90;;;;;;5050961;28;20021;-71
2022/09/24 00:28:24;;;;;;;4.63;2.72;;;16.10;95.90;;;;;;5051322;28;20036;-70
2022/09/24 00:30:51;;;;;;;4.75;3.00;;;16.10;96.10;;;;;;5051106;28;20033;-71
2022/09/24 00:33:17;;;;;;;5.82;2.80;;;16.00;96.30;;;;;;5050821;28;20040;-72
2022/09/24 00:35:42;;;;;;;5.50;3.03;;;16.00;96.60;;;;;;5048707;28;20044;-71
2022/09/24 00:38:09;;;;;;;5.47;2.97;;;16.00;96.40;;;;;;5051046;28;20029;-70
2022/09/24 00:40:36;;;;;;;6.68;3.38;;;16.00;96.60;;;;;;5051243;28;20104;-71
2022/09/24 00:43:24;;;;;;;4.22;2.65;;;15.90;96.60;;;;;;5050749;28;20033;-71
2022/09/24 00:45:52;;;;;;;6.35;2.72;;;15.90;96.60;;;;;;5050947;28;20033;-71
2022/09/24 00:48:18;;;;;;;4.65;2.90;;;15.90;96.60;;;;;;5050934;28;20116;-71
2022/09/24 00:50:44;;;;;;;4.38;2.80;;;15.80;96.80;;;;;;5050556;28;20454;-71
2022/09/24 00:53:18;;;;;;;4.78;3.25;;;15.80;96.90;;;;;;5050635;28;20040;-71
2022/09/24 00:55:49;;;;;;;5.47;3.00;;;15.80;96.70;;;;;;5051030;28;20032;-71
2022/09/24 00:58:15;;;;;;;5.25;2.90;;;15.80;96.80;;;;;;5050748;28;20039;-70
2022/09/24 01:00:44;;;;;;;3.78;2.63;;;15.80;96.80;;;;;;5050302;28;20373;-71
2022/09/24 01:03:18;;;;;;;6.60;2.67;;;15.70;96.80;;;;;;5050106;28;20091;-71
2022/09/24 01:05:43;;;;;;;6.10;3.13;;;15.70;96.90;;;;;;5050181;28;20056;-71
2022/09/24 01:08:14;;;;;;;5.45;3.03;;;15.70;96.90;;;;;;5050517;28;20416;-71
2022/09/24 01:11:10;;;;;;;5.18;3.00;;;15.70;96.80;;;;;;5051429;28;20021;-71
2022/09/24 01:13:54;;;;;;;4.45;3.00;;;15.60;97.00;;;;;;5032831;28;20111;-71
2022/09/24 01:16:26;;;;;;;10.13;3.00;;;15.60;97.10;;;;;;5049158;28;20649;-71
2022/09/24 01:19:39;;;;;;;5.65;3.00;;;15.60;96.90;;;;;;5050116;28;20052;-71
2022/09/24 01:22:17;;;;;;;6.88;3.15;;;15.60;97.10;;;;;;4988574;28;20396;-70
2022/09/24 01:25:06;;;;;;;4.00;2.60;;;15.60;97.20;;;;;;4988840;28;20034;-70
2022/09/24 01:27:40;;;;;;;6.25;2.83;;;15.60;97.30;;;;;;5018887;28;20075;-71
2022/09/24 01:30:11;;;;;;;4.80;3.00;;;15.60;97.40;;;;;;5030158;28;20033;-71
2022/09/24 01:32:56;;;;;;;6.38;2.75;;;15.60;97.40;;;;;;5030304;28;20080;-70
2022/09/24 01:35:46;;;;;;;4.40;3.15;;;15.60;97.60;;;;;;5025603;28;20167;-71
2022/09/24 01:38:18;;;;;;;6.90;3.40;;;15.60;97.70;;;;;;5010572;28;20026;-71
2022/09/24 01:40:46;;;;;;;5.00;2.90;;;15.60;97.70;;;;;;5010037;28;20040;-72
2022/09/24 01:43:13;;;;;;;;;;;15.60;98.20;;;;;;5011074;28;20030;-72
2022/09/24 01:45:39;;;;;;;9.73;2.90;;;15.60;98.20;;;;;;5009189;28;20379;-71
2022/09/24 01:48:06;;;;;;;6.03;3.60;;;15.60;98.10;;;;;;5013027;28;20109;-72
2022/09/24 01:50:57;;;;;;;9.27;3.60;;;15.70;98.50;;;;;;5014375;28;20029;-73
2022/09/24 01:53:33;;;;;;;6.28;3.83;;;15.70;98.40;;;;;;5013251;28;20496;-72
2022/09/24 01:56:24;;;;;;;7.93;3.38;;;15.70;98.80;;;;;;5015009;28;20514;-72
2022/09/24 01:59:08;;;;;;;7.00;2.80;;;15.60;99.10;;;;;;5016476;28;20026;-72
2022/09/24 02:01:42;;;;;;;6.43;3.20;;;15.70;98.80;;;;;;5035054;28;20136;-72
2022/09/24 02:04:15;;;;;;;6.00;3.13;;;15.60;99.00;;;;;;5035998;28;20028;-72
2022/09/24 02:07:04;;;;;;;6.57;3.63;;;15.60;98.90;;;;;;5036470;28;20030;-72
2022/09/24 02:09:35;;;;;;;6.95;3.25;;;15.60;99.30;;;;;;5035404;28;20036;-72
2022/09/24 02:12:10;;;;;;;5.97;3.60;;;15.40;99.60;;;;;;5034874;28;20057;-73
2022/09/24 02:14:44;;;;;;;7.32;3.80;;;15.40;99.50;;;;;;5034699;28;20117;-72
2022/09/24 02:17:11;;;;;;;7.82;3.92;;;15.40;99.50;;;;;;5035807;28;20088;-73
2022/09/24 02:19:39;;;;;;;7.20;3.70;;;15.30;99.70;;;;;;5036554;28;20017;-71
2022/09/24 02:22:08;;;;;;;51.42;29.25;;;15.40;99.60;;;;;;5034685;28;20129;-72
2022/09/24 02:24:39;;;;;;;43.03;20.92;;;15.30;99.60;;;;;;5035232;28;20048;-72
2022/09/24 02:27:04;;;;;;;10.50;6.25;;;15.30;99.60;;;;;;5033457;28;20423;-71
2022/09/24 02:29:30;;;;;;;7.65;4.28;;;15.30;99.70;;;;;;5033478;28;20102;-71
2022/09/24 02:31:57;;;;;;;6.85;4.03;;;15.30;99.90;;;;;;5033401;28;20029;-71
2022/09/24 02:34:30;;;;;;;6.40;3.72;;;15.40;99.90;;;;;;5033596;28;20033;-71
2022/09/24 02:37:10;;;;;;;7.18;4.10;;;15.40;99.90;;;;;;5033312;28;20022;-71
2022/09/24 02:39:35;;;;;;;6.78;3.78;;;15.30;99.90;;;;;;5033269;28;20025;-71
2022/09/24 02:42:06;;;;;;;9.23;4.22;;;15.40;99.90;;;;;;5033435;28;20112;-72
2022/09/24 02:44:32;;;;;;;10.07;4.70;;;15.40;99.90;;;;;;5033215;28;20033;-71
2022/09/24 02:46:58;;;;;;;5.63;4.15;;;15.40;99.90;;;;;;5033043;28;20079;-72
2022/09/24 02:49:24;;;;;;;6.93;4.68;;;15.40;99.90;;;;;;5033561;28;20360;-70
2022/09/24 02:51:50;;;;;;;10.43;3.63;;;15.40;99.90;;;;;;5032810;28;20064;-71
2022/09/24 02:54:15;;;;;;;5.82;3.83;;;15.30;99.90;;;;;;5031828;28;20034;-72
2022/09/24 02:56:41;;;;;;;9.23;4.47;;;15.40;99.90;;;;;;5031729;28;20021;-72
2022/09/24 02:59:07;;;;;;;6.65;4.43;;;15.30;99.90;;;;;;5031914;28;20025;-71
2022/09/24 03:01:33;;;;;;;8.23;5.10;;;15.40;99.90;;;;;;5033186;28;20094;-72
2022/09/24 03:04:00;;;;;;;6.13;4.70;;;15.40;99.90;;;;;;5031626;28;20479;-71
2022/09/24 03:06:26;;;;;;;8.15;5.50;;;15.40;99.90;;;;;;5032577;28;20029;-70
2022/09/24 03:08:52;;;;;;;8.10;4.82;;;15.40;99.90;;;;;;5032486;28;20113;-72
2022/09/24 03:11:20;;;;;;;9.18;4.65;;;15.30;99.90;;;;;;5032776;28;20044;-71
2022/09/24 03:13:47;;;;;;;6.60;5.13;;;15.30;99.90;;;;;;5032774;28;20045;-71
2022/09/24 03:16:12;;;;;;;10.30;4.70;;;15.30;99.90;;;;;;5032251;28;20117;-71
2022/09/24 03:18:38;;;;;;;8.35;4.75;;;15.30;99.90;;;;;;5032383;28;20475;-72
2022/09/24 03:21:07;;;;;;;10.18;4.90;;;15.30;99.90;;;;;;5032353;28;20455;-72
2022/09/24 03:23:33;;;;;;;9.40;4.93;;;15.20;99.90;;;;;;5032497;28;20025;-71
2022/09/24 03:25:59;;;;;;;16.70;4.80;;;15.20;99.90;;;;;;5030913;28;20021;-71
2022/09/24 03:28:26;;;;;;;7.97;5.18;;;15.20;99.90;;;;;;5031455;28;20034;-71
2022/09/24 03:31:01;;;;;;;7.65;5.57;;;15.20;99.90;;;;;;5030870;28;20080;-71
2022/09/24 03:33:31;;;;;;;8.13;5.18;;;15.20;99.90;;;;;;5032042;28;20112;-71
2022/09/24 03:36:03;;;;;;;8.35;5.38;;;15.20;99.90;;;;;;5032848;28;20037;-75
2022/09/24 03:38:29;;;;;;;8.23;5.18;;;15.20;99.90;;;;;;5038322;28;20103;-71
2022/09/24 03:40:55;;;;;;;8.77;5.43;;;15.20;99.90;;;;;;5036878;28;20033;-73
2022/09/24 03:43:21;;;;;;;7.85;5.47;;;15.20;99.90;;;;;;5036844;28;20030;-71
2022/09/24 03:45:48;;;;;;;9.27;5.50;;;15.20;99.90;;;;;;5034546;28;20056;-72
2022/09/24 03:48:14;;;;;;;7.43;5.20;;;15.10;99.90;;;;;;5032114;28;20471;-72
2022/09/24 03:50:40;;;;;;;10.23;5.80;;;15.00;99.90;;;;;;5047235;28;20052;-71
2022/09/24 03:53:06;;;;;;;13.30;5.70;;;15.00;99.90;;;;;;5031557;28;20507;-71
2022/09/24 03:55:32;;;;;;;7.20;4.85;;;15.00;99.90;;;;;;5030888;28;20055;-72
2022/09/24 03:57:57;;;;;;;8.93;5.88;;;15.00;99.90;;;;;;5031803;28;20108;-72
2022/09/24 04:00:23;;;;;;;13.50;7.00;;;15.00;99.90;;;;;;5031813;28;20091;-72
2022/09/24 04:02:50;;;;;;;11.75;7.10;;;15.00;99.90;;;;;;5030493;28;20557;-72
2022/09/24 04:05:16;;;;;;;9.73;7.15;;;15.00;99.90;;;;;;5031451;28;20032;-72
2022/09/24 04:07:43;;;;;;;13.07;7.03;;;15.00;99.90;;;;;;5031951;28;20026;-71
2022/09/24 04:10:09;;;;;;;13.20;7.00;;;14.90;99.90;;;;;;5032064;28;20455;-72
2022/09/24 04:12:35;;;;;;;9.40;6.90;;;14.90;99.90;;;;;;5031450;28;20045;-71
2022/09/24 04:15:01;;;;;;;14.43;7.80;;;14.90;99.90;;;;;;5031793;28;20387;-71
2022/09/24 04:17:30;;;;;;;12.13;6.50;;;14.90;99.90;;;;;;5031095;28;20312;-73
2022/09/24 04:19:56;;;;;;;12.52;6.72;;;14.90;99.90;;;;;;5030253;28;20465;-71
2022/09/24 04:22:22;;;;;;;15.27;7.63;;;14.80;99.90;;;;;;5031420;28;20370;-71
2022/09/24 04:24:50;;;;;;;11.85;7.10;;;14.80;99.90;;;;;;5030866;28;20037;-72
2022/09/24 04:27:15;;;;;;;10.73;6.90;;;14.90;99.90;;;;;;5029909;28;20183;-71
2022/09/24 04:29:41;;;;;;;13.77;7.72;;;14.90;99.90;;;;;;5029712;28;20452;-71
2022/09/24 04:32:07;;;;;;;11.35;7.45;;;14.90;99.90;;;;;;5031076;28;20494;-72
2022/09/24 04:34:32;;;;;;;11.90;7.32;;;14.90;99.90;;;;;;5031068;28;20032;-71
2022/09/24 04:36:58;;;;;;;10.55;7.30;;;14.80;99.90;;;;;;5031084;28;20033;-72
2022/09/24 04:39:26;;;;;;;13.02;7.80;;;14.80;99.90;;;;;;5030676;28;20029;-71
2022/09/24 04:41:52;;;;;;;10.43;7.07;;;14.80;99.90;;;;;;5030663;28;20033;-72
2022/09/24 04:44:18;;;;;;;11.35;7.78;;;14.80;99.90;;;;;;5029421;28;20033;-71
2022/09/24 04:46:44;;;;;;;14.02;8.07;;;14.80;99.90;;;;;;5031108;28;20354;-72
2022/09/24 04:49:10;;;;;;;10.95;7.40;;;14.80;99.90;;;;;;5031022;28;20045;-72
2022/09/24 04:51:36;;;;;;;12.88;7.60;;;14.80;99.90;;;;;;5030743;28;20308;-72
2022/09/24 04:54:02;;;;;;;9.98;6.97;;;14.80;99.90;;;;;;5030509;28;20408;-72
2022/09/24 04:56:29;;;;;;;10.13;7.15;;;14.70;99.90;;;;;;5030436;28;20041;-72
2022/09/24 04:58:54;;;;;;;10.40;6.63;;;14.70;99.90;;;;;;5030069;28;20518;-72
2022/09/24 05:01:20;;;;;;;13.82;6.97;;;14.70;99.90;;;;;;5029766;28;20436;-72
2022/09/24 05:03:46;;;;;;;10.23;7.20;;;14.70;99.90;;;;;;5030477;28;20363;-72
2022/09/24 05:06:12;;;;;;;10.65;7.13;;;14.60;99.90;;;;;;5030347;28;20034;-71
2022/09/24 05:08:37;;;;;;;12.20;7.25;;;14.60;99.90;;;;;;5030146;28;20033;-72
2022/09/24 05:11:03;;;;;;;11.95;7.88;;;14.60;99.90;;;;;;5030567;28;20087;-71
2022/09/24 05:13:29;;;;;;;11.63;7.82;;;14.60;99.90;;;;;;5030571;28;20056;-72
2022/09/24 05:15:54;;;;;;;11.63;7.25;;;14.60;99.90;;;;;;5029080;28;20395;-71
2022/09/24 05:18:20;;;;;;;14.57;8.07;;;14.50;99.90;;;;;;5030243;28;20175;-71
2022/09/24 05:20:45;;;;;;;13.95;7.30;;;14.50;99.90;;;;;;5030240;28;20124;-71
2022/09/24 05:23:11;;;;;;;11.90;7.68;;;14.40;99.90;;;;;;5029774;28;20017;-72
2022/09/24 05:27:07;;;;;;;12.18;7.35;;;14.40;99.90;;;;;;5030655;28;20105;-72
2022/09/24 05:28:23;;;;;;;12.32;7.80;;;14.40;99.90;;;;;;5029837;28;20037;-72
2022/09/24 05:30:49;;;;;;;15.15;7.53;;;14.40;99.90;;;;;;5029840;28;20432;-71
2022/09/24 05:33:14;;;;;;;10.60;7.75;;;14.40;99.90;;;;;;5029734;28;20056;-73
2022/09/24 05:35:40;;;;;;;14.30;8.43;;;14.50;99.90;;;;;;5029824;28;20034;-72
2022/09/24 05:38:05;;;;;;;11.80;7.97;;;14.50;99.90;;;;;;5029845;28;20034;-72
2022/09/24 05:40:49;;;;;;;11.57;7.82;;;14.40;99.90;;;;;;5030268;28;20042;-71
2022/09/24 05:43:18;;;;;;;21.95;11.45;;;14.40;99.90;;;;;;5030218;28;20362;-71
2022/09/24 05:45:44;;;;;;;16.33;10.63;;;14.40;99.90;;;;;;5028958;28;20040;-72
2022/09/24 05:48:10;;;;;;;14.05;9.10;;;14.40;99.90;;;;;;5030294;28;20033;-72
2022/09/24 05:50:36;;;;;;;12.32;8.65;;;14.40;99.90;;;;;;5030013;28;20060;-72
2022/09/24 05:53:04;;;;;;;14.90;8.68;;;14.50;99.90;;;;;;5030314;28;20041;-72
2022/09/24 05:55:30;;;;;;;17.25;9.27;;;14.50;99.90;;;;;;5030494;28;20032;-71
2022/09/24 05:58:10;;;;;;;19.38;11.15;;;14.50;99.90;;;;;;5029891;28;20026;-71
2022/09/24 06:00:36;;;;;;;18.48;11.77;;;14.50;99.90;;;;;;5030016;28;20087;-72
2022/09/24 06:03:09;;;;;;;15.32;8.30;;;14.40;99.90;;;;;;5030885;28;20034;-72
2022/09/24 06:05:35;;;;;;;14.52;8.77;;;14.50;99.90;;;;;;5030084;28;20473;-71
2022/09/24 06:08:02;;;;;;;19.00;8.65;;;14.50;99.90;;;;;;5030398;28;20109;-76
2022/09/24 06:10:28;;;;;;;15.55;9.00;;;14.40;99.90;;;;;;5046101;28;20014;-70
2022/09/24 06:12:54;;;;;;;12.60;7.95;;;14.50;99.90;;;;;;5045804;28;20036;-71
2022/09/24 06:15:20;;;;;;;15.07;8.63;;;14.50;99.90;;;;;;5029576;28;20121;-70
2022/09/24 06:17:46;;;;;;;13.43;8.68;;;14.50;99.90;;;;;;5030617;28;20412;-71
2022/09/24 06:20:12;;;;;;;13.10;8.55;;;14.50;99.90;;;;;;5030858;28;20112;-71
2022/09/24 06:22:38;;;;;;;18.75;9.35;;;14.60;99.90;;;;;;5032235;28;20021;-73
2022/09/24 06:25:05;;;;;;;15.68;8.75;;;14.60;99.90;;;;;;5031933;28;20363;-72
2022/09/24 06:27:30;;;;;;;15.05;8.55;;;14.60;99.90;;;;;;5029407;28;20483;-70
2022/09/24 06:29:56;;;;;;;14.65;8.50;;;14.60;99.90;;;;;;5032082;28;20060;-71
2022/09/24 06:32:23;;;;;;;11.98;8.48;;;14.60;99.90;;;;;;5033155;28;20040;-72
2022/09/24 06:34:49;;;;;;;13.73;8.10;;;14.60;99.90;;;;;;5035253;28;20041;-71
2022/09/24 06:37:15;;;;;;;11.73;8.50;;;14.60;99.90;;;;;;5034591;28;20033;-72
2022/09/24 06:39:40;;;;;;;11.57;8.85;;;14.60;99.90;;;;;;5032527;28;20040;-72
2022/09/24 06:42:06;;;;;;;11.10;8.65;;;14.70;99.90;;;;;;5035488;28;20033;-74
2022/09/24 06:44:33;;;;;;;17.30;9.40;;;14.70;99.90;;;;;;5034833;28;20080;-72
2022/09/24 06:47:00;;;;;;;12.52;8.60;;;14.70;99.90;;;;;;5033372;28;20025;-72
2022/09/24 06:49:26;;;;;;;17.20;9.07;;;14.80;99.90;;;;;;5036753;28;20017;-72
2022/09/24 06:51:57;;;;;;;11.80;8.18;;;14.80;99.90;;;;;;5035147;28;20087;-71
2022/09/24 06:54:24;;;;;;;11.90;7.93;;;14.80;99.90;;;;;;5034324;28;20034;-71
2022/09/24 06:56:51;;;;;;;10.43;7.88;;;14.80;99.90;;;;;;5031550;28;20038;-69
2022/09/24 06:59:17;;;;;;;12.10;8.17;;;14.80;99.90;;;;;;5032588;28;20025;-71
2022/09/24 07:01:43;;;;;;;11.75;7.97;;;14.80;99.90;;;;;;5032961;28;20258;-71
2022/09/24 07:04:08;;;;;;;12.07;8.18;;;14.80;99.90;;;;;;5032452;28;20165;-71
2022/09/24 07:09:23;;;;;;;15.68;10.45;;;14.90;99.90;;;;;;5009034;28;20043;-72
2022/09/24 07:11:49;;;;;;;13.48;8.57;;;14.90;99.90;;;;;;5043562;28;20041;-72
2022/09/24 07:14:14;;;;;;;14.02;7.93;;;14.90;99.90;;;;;;5032427;28;20038;-71
2022/09/24 07:16:40;;;;;;;16.25;8.95;;;15.10;99.90;;;;;;5033064;28;20226;-72
2022/09/24 07:19:06;;;;;;;13.57;8.73;;;15.00;99.90;;;;;;5031416;28;20045;-71
2022/09/24 07:21:31;;;;;;;12.85;8.63;;;15.10;99.90;;;;;;5032717;28;20026;-70
2022/09/24 07:23:57;;;;;;;12.82;9.27;;;15.00;99.90;;;;;;5032438;28;20049;-70
2022/09/24 07:26:23;;;;;;;14.23;10.32;;;15.10;99.90;;;;;;5032121;28;20113;-72
2022/09/24 07:28:48;;;;;;;16.55;9.57;;;15.20;99.90;;;;;;5031827;28;20467;-71
2022/09/24 07:31:16;;;;;;;14.60;9.32;;;15.30;99.90;;;;;;5032257;28;20026;-72
2022/09/24 07:33:42;;;;;;;15.43;9.82;;;15.40;99.90;;;;;;5032417;28;20479;-70
2022/09/24 07:36:08;;;;;;;14.77;8.98;;;15.40;99.90;;;;;;5034258;28;20065;-73
2022/09/24 07:38:35;;;;;;;18.27;10.00;;;15.50;99.90;;;;;;5033239;28;20116;-71
2022/09/24 07:41:02;;;;;;;14.15;9.27;;;15.50;99.90;;;;;;5031805;28;20035;-70
2022/09/24 07:43:29;;;;;;;13.23;9.25;;;15.60;99.90;;;;;;5032451;28;20044;-70
2022/09/24 07:45:56;;;;;;;15.87;9.83;;;15.60;99.90;;;;;;5049301;28;20033;-71
2022/09/24 07:48:23;;;;;;;56.45;35.45;;;15.60;99.90;;;;;;5050256;28;20037;-74
2022/09/24 07:50:50;;;;;;;25.83;16.52;;;15.70;99.90;;;;;;5033880;28;20026;-73
2022/09/24 07:53:16;;;;;;;15.25;10.23;;;15.70;99.90;;;;;;5033613;28;20287;-70
2022/09/24 07:55:42;;;;;;;17.30;10.18;;;15.70;99.90;;;;;;5037446;28;20034;-72
2022/09/24 07:58:11;;;;;;;13.52;9.73;;;15.70;99.90;;;;;;5033987;28;20039;-73
2022/09/24 08:00:36;;;;;;;12.88;9.65;;;15.80;99.90;;;;;;5033959;28;20025;-73
2022/09/24 08:03:02;;;;;;;21.15;10.05;;;15.80;99.90;;;;;;5050581;28;20036;-72
2022/09/24 08:05:28;;;;;;;16.90;9.65;;;15.80;99.90;;;;;;5036743;28;20029;-71
2022/09/24 08:07:56;;;;;;;12.77;9.68;;;15.90;99.90;;;;;;5063745;28;20328;-70
2022/09/24 08:10:22;;;;;;;13.73;9.77;;;15.90;99.90;;;;;;5031949;28;20045;-72
2022/09/24 08:12:48;;;;;;;14.90;9.65;;;16.00;99.90;;;;;;5030162;28;20033;-72
2022/09/24 08:15:14;;;;;;;13.63;9.13;;;16.00;99.90;;;;;;5031396;28;20038;-72
2022/09/24 08:17:40;;;;;;;15.07;10.38;;;16.00;99.90;;;;;;5031395;28;20037;-72
2022/09/24 08:20:06;;;;;;;16.25;9.18;;;16.00;99.90;;;;;;5031211;28;20112;-73
2022/09/24 08:22:32;;;;;;;11.88;9.52;;;16.10;99.80;;;;;;5031761;28;20101;-72
2022/09/24 08:24:59;;;;;;;12.07;9.20;;;16.10;99.90;;;;;;5031296;28;20037;-72
2022/09/24 08:27:25;;;;;;;14.32;8.73;;;16.10;99.90;;;;;;5031595;28;20037;-72
2022/09/24 08:29:51;;;;;;;14.32;9.07;;;16.10;99.90;;;;;;5031088;28;20360;-73
2022/09/24 08:32:16;;;;;;;12.68;8.18;;;16.10;99.90;;;;;;5031073;28;20039;-72
2022/09/24 08:34:44;;;;;;;12.82;8.40;;;16.10;99.80;;;;;;5031898;28;20108;-71
2022/09/24 08:37:10;;;;;;;10.53;7.97;;;16.10;99.70;;;;;;5031634;28;20530;-72
2022/09/24 08:39:36;;;;;;;13.20;8.80;;;16.10;99.90;;;;;;5030303;28;20068;-71
2022/09/24 08:42:10;;;;;;;15.85;9.00;;;16.00;99.90;;;;;;5031127;28;20053;-70
2022/09/24 08:47:29;;;;;;;13.50;8.40;;;16.10;99.80;;;;;;5031136;28;20413;-72
2022/09/24 08:50:19;;;;;;;11.30;7.43;;;16.10;99.70;;;;;;5030908;28;20116;-70
2022/09/24 08:53:11;;;;;;;13.77;8.23;;;16.10;99.50;;;;;;5031749;28;20060;-71
2022/09/24 08:55:42;;;;;;;13.60;8.77;;;16.10;99.50;;;;;;5031408;28;20045;-72
2022/09/24 08:58:30;;;;;;;15.00;8.77;;;16.10;99.80;;;;;;5030148;28;20026;-73
2022/09/24 09:01:11;;;;;;;13.27;8.38;;;16.10;99.90;;;;;;5031636;28;20022;-73
2022/09/24 09:03:39;;;;;;;12.38;8.02;;;16.20;99.90;;;;;;5031222;28;20026;-71
2022/09/24 09:06:25;;;;;;;16.45;8.10;;;16.20;99.90;;;;;;5031072;28;20033;-72
2022/09/24 09:09:18;;;;;;;13.98;8.43;;;16.20;99.70;;;;;;5009084;28;20036;-72
2022/09/24 09:11:47;;;;;;;13.27;8.95;;;16.20;99.90;;;;;;5025360;28;20051;-71
2022/09/24 09:14:36;;;;;;;18.35;9.68;;;16.30;99.90;;;;;;5030654;28;20064;-71
2022/09/24 09:17:28;;;;;;;11.02;8.10;;;16.30;99.90;;;;;;5025925;28;20049;-72
2022/09/24 09:20:00;;;;;;;17.75;9.07;;;16.40;99.90;;;;;;5033534;28;20063;-71
2022/09/24 09:22:36;;;;;;;14.88;9.38;;;16.40;99.90;;;;;;5031627;28;20505;-73
2022/09/24 09:25:22;;;;;;;16.25;8.93;;;16.40;99.90;;;;;;5030217;28;20117;-72
2022/09/24 09:28:14;;;;;;;12.90;9.45;;;16.50;99.90;;;;;;5035502;28;20042;-73
2022/09/24 09:31:18;;;;;;;13.95;9.63;;;16.50;99.80;;;;;;5051469;28;20242;-73
2022/09/24 09:34:02;;;;;;;14.82;9.38;;;16.40;99.60;;;;;;5050615;28;20033;-73
2022/09/24 09:36:42;;;;;;;15.90;9.23;;;16.50;99.40;;;;;;5049244;28;20433;-72
2022/09/24 09:39:32;;;;;;;17.85;9.15;;;16.50;99.40;;;;;;5049310;28;20041;-72
2022/09/24 09:42:24;;;;;;;12.82;8.70;;;16.50;99.50;;;;;;5050620;28;20041;-72
2022/09/24 09:44:50;;;;;;;13.90;8.82;;;16.60;99.30;;;;;;5049388;28;20037;-73
2022/09/24 09:47:34;;;;;;;14.27;9.00;;;16.50;98.80;;;;;;5049362;28;20108;-71
2022/09/24 09:50:22;;;;;;;13.65;8.82;;;16.60;99.00;;;;;;5050438;28;20362;-71
2022/09/24 09:52:48;;;;;;;14.57;8.68;;;16.60;99.10;;;;;;5051283;28;20407;-71
2022/09/24 09:55:40;;;;;;;15.95;9.20;;;16.60;99.00;;;;;;5050400;28;20098;-71
2022/09/24 09:58:18;;;;;;;15.18;9.82;;;16.60;98.90;;;;;;5047820;28;20029;-71
2022/09/24 10:00:48;;;;;;;15.10;9.30;;;16.60;98.70;;;;;;5049838;28;20370;-72
2022/09/24 10:03:22;;;;;;;13.43;8.50;;;16.60;98.50;;;;;;5050170;28;20086;-73
2022/09/24 10:05:55;;;;;;;16.00;9.10;;;16.60;98.80;;;;;;5050132;28;20029;-73
2022/09/24 10:08:23;;;;;;;11.57;8.25;;;16.60;99.00;;;;;;5050294;28;20086;-73
2022/09/24 10:10:56;;;;;;;11.05;7.88;;;16.60;98.90;;;;;;5054217;28;20017;-72
2022/09/24 10:13:23;;;;;;;12.70;8.10;;;16.60;98.80;;;;;;5053621;28;20056;-71
2022/09/24 10:15:54;;;;;;;16.70;8.63;;;16.50;98.50;;;;;;5053535;28;20059;-73
2022/09/24 10:18:48;;;;;;;14.52;8.45;;;16.60;98.80;;;;;;5053664;28;20186;-70
2022/09/24 10:21:34;;;;;;;13.00;8.45;;;16.60;99.10;;;;;;5053429;28;20036;-71
2022/09/24 10:24:07;;;;;;;11.68;7.97;;;16.70;98.70;;;;;;5053782;28;20090;-72
2022/09/24 10:26:38;;;;;;;13.52;8.25;;;16.70;98.50;;;;;;5052557;28;20031;-76
2022/09/24 10:31:50;;;;;;;13.10;7.95;;;16.80;98.60;;;;;;5054171;28;20039;-70
2022/09/24 10:34:27;;;;;;;12.85;8.77;;;16.90;98.50;;;;;;5053312;28;20478;-71
2022/09/24 10:37:11;;;;;;;14.45;8.35;;;17.00;98.30;;;;;;5053545;28;20048;-70
2022/09/24 10:39:37;;;;;;;12.18;8.77;;;17.20;98.30;;;;;;5053548;28;20398;-70
2022/09/24 10:42:04;;;;;;;12.32;8.38;;;17.20;97.80;;;;;;5050212;28;20477;-70
2022/09/24 10:44:39;;;;;;;12.95;8.55;;;17.30;97.90;;;;;;5048622;28;20533;-71
2022/09/24 10:47:23;;;;;;;15.75;10.23;;;17.30;97.60;;;;;;5033510;28;20440;-71
2022/09/24 10:50:17;;;;;;;12.48;8.25;;;17.30;97.70;;;;;;5033860;28;20022;-70
2022/09/24 10:52:48;;;;;;;15.13;8.07;;;17.40;97.80;;;;;;5032433;28;20084;-72
2022/09/24 10:55:36;;;;;;;12.05;7.45;;;17.50;97.60;;;;;;5033392;28;20040;-71
2022/09/24 10:58:28;;;;;;;15.45;7.82;;;17.50;97.60;;;;;;5033110;28;20040;-71
2022/09/24 11:01:25;;;;;;;13.00;7.32;;;17.50;97.40;;;;;;5033303;28;20044;-71
2022/09/24 11:04:09;;;;;;;11.88;7.22;;;17.40;97.40;;;;;;5033251;28;20030;-71
2022/09/24 11:07:14;;;;;;;14.07;8.02;;;17.40;97.60;;;;;;5033017;28;20036;-70
2022/09/24 11:10:18;;;;;;;10.73;7.68;;;17.40;97.70;;;;;;5045198;28;20448;-73
2022/09/24 11:13:14;;;;;;;12.43;7.50;;;17.40;97.90;;;;;;5032845;28;20049;-72
2022/09/24 11:16:04;;;;;;;15.05;7.70;;;17.40;97.90;;;;;;5048581;28;20042;-71
2022/09/24 11:18:45;;;;;;;12.00;8.02;;;17.40;98.10;;;;;;5033095;28;20036;-71
2022/09/24 11:21:48;;;;;;;11.27;7.95;;;17.40;98.20;;;;;;5032292;28;20463;-71
2022/09/24 11:24:34;;;;;;;11.75;7.80;;;17.40;98.30;;;;;;5032883;28;20034;-72
2022/09/24 11:27:51;;;;;;;12.05;7.32;;;17.40;98.50;;;;;;5032301;28;20467;-72
2022/09/24 11:30:46;;;;;;;11.70;7.15;;;17.40;98.90;;;;;;5031752;28;20439;-72
2022/09/24 11:33:28;;;;;;;12.50;7.43;;;17.40;98.80;;;;;;5022870;28;20554;-74
2022/09/24 11:36:28;;;;;;;12.30;7.43;;;17.50;98.80;;;;;;5032541;28;20041;-72
2022/09/24 11:39:36;;;;;;;15.82;7.20;;;17.50;98.60;;;;;;5032164;28;20034;-74
2022/09/24 11:42:02;;;;;;;;;;;17.50;98.70;;;;;;5031343;28;20091;-72
2022/09/24 11:44:46;;;;;;;12.80;7.10;;;17.50;99.20;;;;;;5032132;28;19909;-72
2022/09/24 11:47:43;;;;;;;12.48;7.53;;;17.50;98.60;;;;;;5032047;28;20375;-73
2022/09/24 11:50:12;;;;;;;13.10;7.25;;;17.40;98.50;;;;;;5031983;28;20024;-74
2022/09/24 11:53:10;;;;;;;15.73;7.75;;;17.40;98.40;;;;;;5032452;28;20017;-72
2022/09/24 11:55:48;;;;;;;11.18;7.15;;;17.50;98.20;;;;;;5031261;28;20045;-72
2022/09/24 11:58:27;;;;;;;13.43;8.25;;;17.50;98.30;;;;;;5031974;28;20026;-74
2022/09/24 12:00:59;;;;;;;11.35;7.03;;;17.50;98.70;;;;;;5032022;28;20025;-73
2022/09/24 12:03:46;;;;;;;17.40;7.05;;;17.50;98.80;;;;;;5031689;28;20033;-74
2022/09/24 12:06:23;;;;;;;33.55;19.67;;;17.50;98.90;;;;;;5031798;28;20041;-72
2022/09/24 12:09:15;;;;;;;23.15;14.73;;;17.50;98.90;;;;;;5031314;28;20026;-72
2022/09/24 12:11:45;;;;;;;13.57;8.68;;;17.50;99.10;;;;;;5031427;28;20044;-72
2022/09/24 12:14:41;;;;;;;13.90;7.85;;;17.50;99.10;;;;;;5031701;28;20042;-72
2022/09/24 12:17:15;;;;;;;56.03;35.40;;;17.50;99.10;;;;;;5030596;28;20035;-72
2022/09/24 12:20:00;;;;;;;52.47;32.17;;;17.50;98.90;;;;;;5031894;28;20121;-71
2022/09/24 12:22:27;;;;;;;19.10;10.60;;;17.60;99.10;;;;;;5031448;28;20139;-71
2022/09/24 12:24:57;;;;;;;12.48;8.32;;;17.60;99.00;;;;;;5031217;28;20029;-71
2022/09/24 12:27:42;;;;;;;15.07;8.23;;;17.60;98.90;;;;;;5046639;28;20026;-73
2022/09/24 12:33:02;;;;;;;12.85;7.75;;;17.50;99.40;;;;;;5030392;28;20375;-72
2022/09/24 12:35:46;;;;;;;13.30;7.32;;;17.30;99.30;;;;;;5031389;28;20113;-71
2022/09/24 12:38:19;;;;;;;13.10;7.43;;;17.30;99.40;;;;;;5030081;28;20025;-72
2022/09/24 12:41:04;;;;;;;15.35;8.30;;;17.30;99.70;;;;;;5031561;28;20314;-73
2022/09/24 12:43:53;;;;;;;13.45;8.07;;;17.30;99.90;;;;;;5031449;28;20052;-73
2022/09/24 12:46:43;;;;;;;12.07;7.20;;;17.40;99.70;;;;;;5030773;28;20046;-71
2022/09/24 12:49:24;;;;;;;12.23;7.72;;;17.30;99.60;;;;;;5031038;28;20041;-72
2022/09/24 12:52:02;;;;;;;12.52;7.80;;;17.40;99.90;;;;;;5029883;28;20118;-71
2022/09/24 12:54:29;;;;;;;;;;;17.30;99.90;;;;;;5031453;28;20571;-71
2022/09/24 12:57:11;;;;;;;30.30;18.95;;;17.40;99.90;;;;;;5031053;28;19917;-71
2022/09/24 12:59:50;;;;;;;12.73;8.40;;;17.50;99.90;;;;;;5030758;28;20117;-73
2022/09/24 13:02:20;;;;;;;15.27;7.68;;;17.40;99.80;;;;;;5057252;28;20085;-72
2022/09/24 13:04:59;;;;;;;13.63;7.85;;;17.40;99.70;;;;;;5051212;28;20348;-72
2022/09/24 13:07:39;;;;;;;13.00;7.80;;;17.40;99.90;;;;;;5050972;28;20111;-74
2022/09/24 13:10:22;;;;;;;11.43;7.85;;;17.40;99.90;;;;;;5049731;28;20056;-72
2022/09/24 13:12:48;;;;;;;13.05;8.10;;;17.40;99.80;;;;;;5050640;28;20029;-73
2022/09/24 13:15:35;;;;;;;12.38;7.70;;;17.40;99.90;;;;;;5050808;28;20043;-73
2022/09/24 13:18:03;;;;;;;11.40;7.72;;;17.30;99.70;;;;;;5050900;28;20068;-71
2022/09/24 13:20:30;;;;;;;13.13;8.15;;;17.30;99.60;;;;;;5050917;28;20021;-74
2022/09/24 13:22:57;;;;;;;17.13;9.73;;;17.40;99.70;;;;;;5050655;28;20036;-73